PWSweather.com
Personal Weather Stations
Station Observations
DW1039
Liberty & Fairfield Townships, Hamilton, OH 45011

Liberty & Fairfield TownshipsHamilton, OH 45011

Lat: 39.3933, Lon: -84.477

Elevation: 780

Station Type: Davis Vantage Pro2 (Daytime Fan Aspirated)

http://www.lfweathercenter.com/

High Low Average
Temperature 87.5°F30.8°C 71.3°F21.8°C 78.4°F25.8°C
Dew Point 70.6°F21.4°C 54.7°F12.6°C 65.0°F18.3°C
Winds 10.0 mph 16.1 kmh Calm Calm 2.0 mph SW3.2 kmh SW
Wind Gusts 15.0 mph24.1 kmh 1.0 mph1.6 kmh 7.0 mph11.3 kmh
Humidity 95% 37% 67%
Pressure 29.93 in1013.5 mb 29.73 in1006.8 mb -
Precipitation 0.00 in0.0 mm - -
Hour Temp Dew Point Humidity Winds Wind Gusts Pressure Precip Precip Rate Daily Precip Total
12:00 AM 84.8°F29.3°C 68.9°F20.5°C 59% Calm Calm 14.0 mph22.5 kmh 29.73 in1006.8 mb 0.00 in0.0 mm 0.00 in/hr0.0 mm/hr 0.00 in0.0 mm
12:10 AM 84.8°F29.3°C 69.4°F20.8°C 60% 5.0 mph WSW8.0 kmh WSW 15.0 mph24.1 kmh 29.72 in1006.4 mb 0.00 in0.0 mm 0.00 in/hr0.0 mm/hr 0.00 in0.0 mm
12:20 AM 84.7°F29.3°C 69.3°F20.7°C 60% 9.0 mph SW14.5 kmh SW 16.0 mph25.7 kmh 29.72 in1006.4 mb 0.00 in0.0 mm 0.00 in/hr0.0 mm/hr 0.00 in0.0 mm
12:30 AM 84.5°F29.2°C 69.1°F20.6°C 60% 6.0 mph SSW9.7 kmh SSW 19.0 mph30.6 kmh 29.73 in1006.8 mb 0.00 in0.0 mm 0.00 in/hr0.0 mm/hr 0.00 in0.0 mm
12:40 AM 84.4°F29.1°C 69.5°F20.8°C 61% 5.0 mph SW8.0 kmh SW 13.0 mph20.9 kmh 29.74 in1007.1 mb 0.00 in0.0 mm 0.00 in/hr0.0 mm/hr 0.00 in0.0 mm
12:50 AM 84.3°F29.1°C 69.4°F20.8°C 61% 4.0 mph SSW6.4 kmh SSW 19.0 mph30.6 kmh 29.73 in1006.8 mb 0.00 in0.0 mm 0.00 in/hr0.0 mm/hr 0.00 in0.0 mm
01:00 AM 83.8°F28.8°C 69.4°F20.8°C 62% 10.0 mph SSW16.1 kmh SSW 11.0 mph17.7 kmh 29.74 in1007.1 mb 0.00 in0.0 mm 0.00 in/hr0.0 mm/hr 0.00 in0.0 mm
01:10 AM 83.7°F28.7°C 69.3°F20.7°C 62% 3.0 mph SSW4.8 kmh SSW 14.0 mph22.5 kmh 29.74 in1007.1 mb 0.00 in0.0 mm 0.00 in/hr0.0 mm/hr 0.00 in0.0 mm
01:20 AM 83.5°F28.6°C 69.1°F20.6°C 62% 3.0 mph SW4.8 kmh SW 12.0 mph19.3 kmh 29.74 in1007.1 mb 0.00 in0.0 mm 0.00 in/hr0.0 mm/hr 0.00 in0.0 mm
01:30 AM 82.9°F28.3°C 69.0°F20.6°C 63% 3.0 mph WSW4.8 kmh WSW 12.0 mph19.3 kmh 29.73 in1006.8 mb 0.00 in0.0 mm 0.00 in/hr0.0 mm/hr 0.00 in0.0 mm
01:40 AM 82.3°F27.9°C 69.4°F20.8°C 65% 4.0 mph WSW6.4 kmh WSW 12.0 mph19.3 kmh 29.75 in1007.5 mb 0.00 in0.0 mm 0.00 in/hr0.0 mm/hr 0.00 in0.0 mm
02:00 AM 73.7°F23.2°C 70.3°F21.3°C 89% Calm Calm 5.0 mph8.0 kmh 29.78 in1008.5 mb 0.29 in7.4 mm 0.44 in/hr11.2 mm/hr 0.29 in7.4 mm
02:10 AM 71.9°F22.2°C 69.5°F20.8°C 92% Calm Calm 1.0 mph1.6 kmh 29.78 in1008.5 mb 0.37 in9.4 mm 0.48 in/hr12.2 mm/hr 0.37 in9.4 mm
02:20 AM 71.9°F22.2°C 69.8°F21.0°C 93% Calm Calm 4.0 mph6.4 kmh 29.77 in1008.1 mb 0.37 in9.4 mm 0.00 in/hr0.0 mm/hr 0.37 in9.4 mm
02:30 AM 71.8°F22.1°C 70.0°F21.1°C 94% Calm Calm 1.0 mph1.6 kmh 29.77 in1008.1 mb 0.37 in9.4 mm 0.00 in/hr0.0 mm/hr 0.37 in9.4 mm
02:40 AM 71.7°F22.1°C 70.2°F21.2°C 95% Calm Calm 1.0 mph1.6 kmh 29.76 in1007.8 mb 0.37 in9.4 mm 0.00 in/hr0.0 mm/hr 0.37 in9.4 mm
02:50 AM 71.9°F22.2°C 70.1°F21.2°C 94% Calm Calm 2.0 mph3.2 kmh 29.76 in1007.8 mb 0.38 in9.7 mm 0.06 in/hr1.5 mm/hr 0.38 in9.7 mm
03:00 AM 72.0°F22.2°C 69.9°F21.1°C 93% Calm Calm 6.0 mph9.7 kmh 29.74 in1007.1 mb 0.11 in2.8 mm 0.00 in/hr0.0 mm/hr 0.38 in9.7 mm
03:10 AM 72.3°F22.4°C 70.2°F21.2°C 93% 1.0 mph WSW1.6 kmh WSW 6.0 mph9.7 kmh 29.74 in1007.1 mb 0.01 in0.3 mm 0.00 in/hr0.0 mm/hr 0.38 in9.7 mm
03:20 AM 72.5°F22.5°C 70.1°F21.2°C 92% Calm Calm 5.0 mph8.0 kmh 29.74 in1007.1 mb 0.01 in0.3 mm 0.00 in/hr0.0 mm/hr 0.38 in9.7 mm
03:30 AM 72.6°F22.6°C 70.2°F21.2°C 92% Calm Calm 5.0 mph8.0 kmh 29.74 in1007.1 mb 0.01 in0.3 mm 0.00 in/hr0.0 mm/hr 0.38 in9.7 mm
03:40 AM 72.5°F22.5°C 70.1°F21.2°C 92% Calm Calm 3.0 mph4.8 kmh 29.75 in1007.5 mb 0.01 in0.3 mm 0.00 in/hr0.0 mm/hr 0.38 in9.7 mm
03:50 AM 72.6°F22.6°C 70.5°F21.4°C 93% 1.0 mph SW1.6 kmh SW 4.0 mph6.4 kmh 29.75 in1007.5 mb 0.00 in0.0 mm 0.00 in/hr0.0 mm/hr 0.38 in9.7 mm
04:00 AM 73.2°F22.9°C 70.1°F21.2°C 90% 1.0 mph WSW1.6 kmh WSW 9.0 mph14.5 kmh 29.75 in1007.5 mb 0.00 in0.0 mm 0.00 in/hr0.0 mm/hr 0.38 in9.7 mm
04:10 AM 73.8°F23.2°C 70.0°F21.1°C 88% Calm Calm 10.0 mph16.1 kmh 29.75 in1007.5 mb 0.00 in0.0 mm 0.00 in/hr0.0 mm/hr 0.38 in9.7 mm
04:20 AM 73.9°F23.3°C 69.8°F21.0°C 87% 1.0 mph WSW1.6 kmh WSW 5.0 mph8.0 kmh 29.75 in1007.5 mb 0.00 in0.0 mm 0.00 in/hr0.0 mm/hr 0.38 in9.7 mm
04:30 AM 74.1°F23.4°C 69.7°F20.9°C 86% 6.0 mph WSW9.7 kmh WSW 12.0 mph19.3 kmh 29.75 in1007.5 mb 0.00 in0.0 mm 0.00 in/hr0.0 mm/hr 0.38 in9.7 mm
04:40 AM 74.5°F23.6°C 69.7°F20.9°C 85% 9.0 mph WSW14.5 kmh WSW 15.0 mph24.1 kmh 29.76 in1007.8 mb 0.00 in0.0 mm 0.00 in/hr0.0 mm/hr 0.38 in9.7 mm
04:50 AM 74.4°F23.6°C 69.3°F20.7°C 84% 4.0 mph W6.4 kmh W 15.0 mph24.1 kmh 29.76 in1007.8 mb 0.00 in0.0 mm 0.00 in/hr0.0 mm/hr 0.38 in9.7 mm
05:00 AM 74.1°F23.4°C 69.7°F20.9°C 86% 5.0 mph W8.0 kmh W 12.0 mph19.3 kmh 29.76 in1007.8 mb 0.00 in0.0 mm 0.00 in/hr0.0 mm/hr 0.38 in9.7 mm
05:10 AM 73.8°F23.2°C 69.7°F20.9°C 87% Calm Calm 7.0 mph11.3 kmh 29.77 in1008.1 mb 0.00 in0.0 mm 0.00 in/hr0.0 mm/hr 0.38 in9.7 mm
05:20 AM 73.5°F23.1°C 69.7°F20.9°C 88% 6.0 mph W9.7 kmh W 6.0 mph9.7 kmh 29.78 in1008.5 mb 0.00 in0.0 mm 0.00 in/hr0.0 mm/hr 0.38 in9.7 mm
05:30 AM 73.4°F23.0°C 69.6°F20.9°C 88% Calm Calm 9.0 mph14.5 kmh 29.77 in1008.1 mb 0.00 in0.0 mm 0.00 in/hr0.0 mm/hr 0.38 in9.7 mm
05:40 AM 73.2°F22.9°C 69.8°F21.0°C 89% 4.0 mph W6.4 kmh W 6.0 mph9.7 kmh 29.78 in1008.5 mb 0.00 in0.0 mm 0.00 in/hr0.0 mm/hr 0.38 in9.7 mm
05:50 AM 73.2°F22.9°C 70.1°F21.2°C 90% Calm Calm 10.0 mph16.1 kmh 29.79 in1008.8 mb 0.00 in0.0 mm 0.00 in/hr0.0 mm/hr 0.38 in9.7 mm
06:00 AM 72.8°F22.7°C 70.0°F21.1°C 91% Calm Calm 5.0 mph8.0 kmh 29.78 in1008.5 mb 0.03 in0.8 mm 0.04 in/hr1.0 mm/hr 0.41 in10.4 mm
06:10 AM 72.3°F22.4°C 70.2°F21.2°C 93% Calm Calm 3.0 mph4.8 kmh 29.79 in1008.8 mb 0.03 in0.8 mm 0.00 in/hr0.0 mm/hr 0.41 in10.4 mm
06:20 AM 72.3°F22.4°C 70.5°F21.4°C 94% Calm Calm 3.0 mph4.8 kmh 29.79 in1008.8 mb 0.04 in1.0 mm 0.06 in/hr1.5 mm/hr 0.42 in10.7 mm
06:30 AM 72.3°F22.4°C 70.5°F21.4°C 94% Calm Calm 2.0 mph3.2 kmh 29.80 in1009.1 mb 0.04 in1.0 mm 0.00 in/hr0.0 mm/hr 0.42 in10.7 mm
06:40 AM 72.3°F22.4°C 70.5°F21.4°C 94% Calm Calm 2.0 mph3.2 kmh 29.80 in1009.1 mb 0.04 in1.0 mm 0.00 in/hr0.0 mm/hr 0.42 in10.7 mm
06:50 AM 72.4°F22.4°C 70.6°F21.4°C 94% 1.0 mph W1.6 kmh W 4.0 mph6.4 kmh 29.81 in1009.5 mb 0.04 in1.0 mm 0.00 in/hr0.0 mm/hr 0.42 in10.7 mm
07:00 AM 72.4°F22.4°C 70.6°F21.4°C 94% Calm Calm 3.0 mph4.8 kmh 29.81 in1009.5 mb 0.01 in0.3 mm 0.00 in/hr0.0 mm/hr 0.42 in10.7 mm
07:10 AM 72.1°F22.3°C 70.3°F21.3°C 94% Calm Calm 3.0 mph4.8 kmh 29.81 in1009.5 mb 0.01 in0.3 mm 0.00 in/hr0.0 mm/hr 0.42 in10.7 mm
07:20 AM 71.9°F22.2°C 70.1°F21.2°C 94% Calm Calm 1.0 mph1.6 kmh 29.81 in1009.5 mb 0.00 in0.0 mm 0.00 in/hr0.0 mm/hr 0.42 in10.7 mm
07:30 AM 71.7°F22.1°C 70.2°F21.2°C 95% Calm Calm 2.0 mph3.2 kmh 29.83 in1010.2 mb 0.01 in0.3 mm 0.06 in/hr1.5 mm/hr 0.43 in10.9 mm
07:40 AM 71.5°F21.9°C 69.7°F20.9°C 94% Calm Calm 4.0 mph6.4 kmh 29.83 in1010.2 mb 0.01 in0.3 mm 0.00 in/hr0.0 mm/hr 0.43 in10.9 mm
07:50 AM 71.4°F21.9°C 69.6°F20.9°C 94% Calm Calm 3.0 mph4.8 kmh 29.83 in1010.2 mb 0.01 in0.3 mm 0.00 in/hr0.0 mm/hr 0.43 in10.9 mm
08:00 AM 71.3°F21.8°C 68.9°F20.5°C 92% 1.0 mph N1.6 kmh N 10.0 mph16.1 kmh 29.84 in1010.5 mb 0.01 in0.3 mm 0.00 in/hr0.0 mm/hr 0.43 in10.9 mm
08:10 AM 71.6°F22.0°C 69.2°F20.7°C 92% Calm Calm 3.0 mph4.8 kmh 29.84 in1010.5 mb 0.01 in0.3 mm 0.00 in/hr0.0 mm/hr 0.43 in10.9 mm
08:20 AM 71.8°F22.1°C 69.0°F20.6°C 91% Calm Calm 4.0 mph6.4 kmh 29.85 in1010.8 mb 0.01 in0.3 mm 0.00 in/hr0.0 mm/hr 0.43 in10.9 mm
08:30 AM 72.0°F22.2°C 68.3°F20.2°C 88% 1.0 mph NW1.6 kmh NW 4.0 mph6.4 kmh 29.85 in1010.8 mb 0.00 in0.0 mm 0.00 in/hr0.0 mm/hr 0.43 in10.9 mm
08:40 AM 71.9°F22.2°C 67.2°F19.6°C 85% 2.0 mph WNW3.2 kmh WNW 4.0 mph6.4 kmh 29.85 in1010.8 mb 0.00 in0.0 mm 0.00 in/hr0.0 mm/hr 0.43 in10.9 mm
08:50 AM 71.7°F22.1°C 67.0°F19.4°C 85% Calm Calm 4.0 mph6.4 kmh 29.86 in1011.2 mb 0.00 in0.0 mm 0.00 in/hr0.0 mm/hr 0.43 in10.9 mm
09:00 AM 71.8°F22.1°C 65.7°F18.7°C 81% 1.0 mph N1.6 kmh N 5.0 mph8.0 kmh 29.86 in1011.2 mb 0.00 in0.0 mm 0.00 in/hr0.0 mm/hr 0.43 in10.9 mm
09:10 AM 71.9°F22.2°C 65.4°F18.6°C 80% Calm Calm 7.0 mph11.3 kmh 29.87 in1011.5 mb 0.00 in0.0 mm 0.00 in/hr0.0 mm/hr 0.43 in10.9 mm
09:20 AM 72.3°F22.4°C 64.7°F18.2°C 77% 1.0 mph NNW1.6 kmh NNW 5.0 mph8.0 kmh 29.88 in1011.9 mb 0.00 in0.0 mm 0.00 in/hr0.0 mm/hr 0.43 in10.9 mm
09:30 AM 72.4°F22.4°C 64.8°F18.2°C 77% 2.0 mph N3.2 kmh N 6.0 mph9.7 kmh 29.88 in1011.9 mb 0.00 in0.0 mm 0.00 in/hr0.0 mm/hr 0.43 in10.9 mm
09:40 AM 73.7°F23.2°C 66.1°F18.9°C 77% 1.0 mph N1.6 kmh N 8.0 mph12.9 kmh 29.88 in1011.9 mb 0.00 in0.0 mm 0.00 in/hr0.0 mm/hr 0.43 in10.9 mm
09:50 AM 73.8°F23.2°C 64.2°F17.9°C 72% 7.0 mph NW11.3 kmh NW 7.0 mph11.3 kmh 29.88 in1011.9 mb 0.00 in0.0 mm 0.00 in/hr0.0 mm/hr 0.43 in10.9 mm
10:00 AM 74.1°F23.4°C 64.1°F17.8°C 71% 1.0 mph NW1.6 kmh NW 5.0 mph8.0 kmh 29.88 in1011.9 mb 0.00 in0.0 mm 0.00 in/hr0.0 mm/hr 0.43 in10.9 mm
10:10 AM 74.9°F23.8°C 64.1°F17.8°C 69% 2.0 mph N3.2 kmh N 3.0 mph4.8 kmh 29.88 in1011.9 mb 0.00 in0.0 mm 0.00 in/hr0.0 mm/hr 0.43 in10.9 mm
10:20 AM 75.6°F24.2°C 64.3°F17.9°C 68% 2.0 mph NW3.2 kmh NW 6.0 mph9.7 kmh 29.88 in1011.9 mb 0.00 in0.0 mm 0.00 in/hr0.0 mm/hr 0.43 in10.9 mm
10:30 AM 76.7°F24.8°C 64.9°F18.3°C 67% 5.0 mph NNW8.0 kmh NNW 6.0 mph9.7 kmh 29.89 in1012.2 mb 0.00 in0.0 mm 0.00 in/hr0.0 mm/hr 0.43 in10.9 mm
10:40 AM 77.3°F25.2°C 64.6°F18.1°C 65% 4.0 mph N6.4 kmh N 7.0 mph11.3 kmh 29.89 in1012.2 mb 0.00 in0.0 mm 0.00 in/hr0.0 mm/hr 0.43 in10.9 mm
10:50 AM 77.5°F25.3°C 64.8°F18.2°C 65% 1.0 mph N1.6 kmh N 6.0 mph9.7 kmh 29.90 in1012.5 mb 0.00 in0.0 mm 0.00 in/hr0.0 mm/hr 0.43 in10.9 mm
11:00 AM 78.1°F25.6°C 63.6°F17.6°C 61% 1.0 mph NNE1.6 kmh NNE 8.0 mph12.9 kmh 29.91 in1012.9 mb 0.00 in0.0 mm 0.00 in/hr0.0 mm/hr 0.43 in10.9 mm
11:10 AM 79.2°F26.2°C 65.1°F18.4°C 62% 4.0 mph NE6.4 kmh NE 6.0 mph9.7 kmh 29.91 in1012.9 mb 0.00 in0.0 mm 0.00 in/hr0.0 mm/hr 0.43 in10.9 mm
11:20 AM 78.5°F25.8°C 63.0°F17.2°C 59% 4.0 mph WNW6.4 kmh WNW 7.0 mph11.3 kmh 29.91 in1012.9 mb 0.00 in0.0 mm 0.00 in/hr0.0 mm/hr 0.43 in10.9 mm
11:30 AM 79.6°F26.4°C 63.0°F17.2°C 57% Calm Calm 6.0 mph9.7 kmh 29.91 in1012.9 mb 0.00 in0.0 mm 0.00 in/hr0.0 mm/hr 0.43 in10.9 mm
11:40 AM 80.1°F26.7°C 60.9°F16.1°C 52% 4.0 mph NW6.4 kmh NW 6.0 mph9.7 kmh 29.92 in1013.2 mb 0.00 in0.0 mm 0.00 in/hr0.0 mm/hr 0.43 in10.9 mm
11:50 AM 80.8°F27.1°C 61.6°F16.4°C 52% 1.0 mph NNW1.6 kmh NNW 7.0 mph11.3 kmh 29.92 in1013.2 mb 0.00 in0.0 mm 0.00 in/hr0.0 mm/hr 0.43 in10.9 mm
12:00 PM 81.3°F27.4°C 60.9°F16.1°C 50% 2.0 mph NNW3.2 kmh NNW 5.0 mph8.0 kmh 29.92 in1013.2 mb 0.00 in0.0 mm 0.00 in/hr0.0 mm/hr 0.43 in10.9 mm
12:10 PM 81.3°F27.4°C 59.8°F15.4°C 48% 2.0 mph NW3.2 kmh NW 6.0 mph9.7 kmh 29.93 in1013.5 mb 0.00 in0.0 mm 0.00 in/hr0.0 mm/hr 0.43 in10.9 mm
12:20 PM 82.4°F28.0°C 60.8°F16.0°C 48% Calm Calm 10.0 mph16.1 kmh 29.93 in1013.5 mb 0.00 in0.0 mm 0.00 in/hr0.0 mm/hr 0.43 in10.9 mm
12:30 PM 82.5°F28.1°C 59.7°F15.4°C 46% 4.0 mph N6.4 kmh N 7.0 mph11.3 kmh 29.93 in1013.5 mb 0.00 in0.0 mm 0.00 in/hr0.0 mm/hr 0.43 in10.9 mm
12:40 PM 82.6°F28.1°C 59.1°F15.1°C 45% 2.0 mph NW3.2 kmh NW 5.0 mph8.0 kmh 29.93 in1013.5 mb 0.00 in0.0 mm 0.00 in/hr0.0 mm/hr 0.43 in10.9 mm
01:00 PM 83.7°F28.7°C 57.5°F14.2°C 41% Calm Calm 7.0 mph11.3 kmh 29.92 in1013.2 mb 0.00 in0.0 mm 0.00 in/hr0.0 mm/hr 0.43 in10.9 mm
01:10 PM 83.7°F28.7°C 54.7°F12.6°C 37% 1.0 mph N1.6 kmh N 5.0 mph8.0 kmh 29.93 in1013.5 mb 0.00 in0.0 mm 0.00 in/hr0.0 mm/hr 0.43 in10.9 mm
01:20 PM 82.7°F28.2°C 57.3°F14.1°C 42% 3.0 mph WSW4.8 kmh WSW 7.0 mph11.3 kmh 29.93 in1013.5 mb 0.00 in0.0 mm 0.00 in/hr0.0 mm/hr 0.43 in10.9 mm
01:30 PM 84.6°F29.2°C 56.9°F13.8°C 39% 1.0 mph W1.6 kmh W 7.0 mph11.3 kmh 29.93 in1013.5 mb 0.00 in0.0 mm 0.00 in/hr0.0 mm/hr 0.43 in10.9 mm
01:40 PM 83.5°F28.6°C 57.4°F14.1°C 41% 3.0 mph WNW4.8 kmh WNW 10.0 mph16.1 kmh 29.92 in1013.2 mb 0.00 in0.0 mm 0.00 in/hr0.0 mm/hr 0.43 in10.9 mm
01:50 PM 83.4°F28.6°C 56.6°F13.7°C 40% 2.0 mph W3.2 kmh W 10.0 mph16.1 kmh 29.92 in1013.2 mb 0.00 in0.0 mm 0.00 in/hr0.0 mm/hr 0.43 in10.9 mm
02:00 PM 84.5°F29.2°C 58.9°F14.9°C 42% 1.0 mph NW1.6 kmh NW 9.0 mph14.5 kmh 29.92 in1013.2 mb 0.00 in0.0 mm 0.00 in/hr0.0 mm/hr 0.43 in10.9 mm
02:10 PM 84.6°F29.2°C 59.0°F15.0°C 42% Calm Calm 9.0 mph14.5 kmh 29.92 in1013.2 mb 0.00 in0.0 mm 0.00 in/hr0.0 mm/hr 0.43 in10.9 mm
02:20 PM 84.9°F29.4°C 59.9°F15.5°C 43% 1.0 mph NNE1.6 kmh NNE 6.0 mph9.7 kmh 29.92 in1013.2 mb 0.00 in0.0 mm 0.00 in/hr0.0 mm/hr 0.43 in10.9 mm
02:30 PM 85.0°F29.4°C 59.4°F15.2°C 42% Calm Calm 6.0 mph9.7 kmh 29.92 in1013.2 mb 0.00 in0.0 mm 0.00 in/hr0.0 mm/hr 0.43 in10.9 mm
02:40 PM 84.8°F29.3°C 61.1°F16.2°C 45% 3.0 mph NNE4.8 kmh NNE 6.0 mph9.7 kmh 29.91 in1012.9 mb 0.00 in0.0 mm 0.00 in/hr0.0 mm/hr 0.43 in10.9 mm
02:50 PM 86.0°F30.0°C 59.6°F15.3°C 41% 1.0 mph NNW1.6 kmh NNW 5.0 mph8.0 kmh 29.92 in1013.2 mb 0.00 in0.0 mm 0.00 in/hr0.0 mm/hr 0.43 in10.9 mm
03:00 PM 86.5°F30.3°C 60.7°F15.9°C 42% 1.0 mph NW1.6 kmh NW 5.0 mph8.0 kmh 29.92 in1013.2 mb 0.00 in0.0 mm 0.00 in/hr0.0 mm/hr 0.43 in10.9 mm
03:10 PM 84.6°F29.2°C 59.0°F15.0°C 42% Calm Calm 9.0 mph14.5 kmh 29.92 in1013.2 mb 0.00 in0.0 mm 0.00 in/hr0.0 mm/hr 0.43 in10.9 mm
03:20 PM 86.8°F30.4°C 61.0°F16.1°C 42% 1.0 mph NNW1.6 kmh NNW 7.0 mph11.3 kmh 29.91 in1012.9 mb 0.00 in0.0 mm 0.00 in/hr0.0 mm/hr 0.43 in10.9 mm
03:30 PM 85.3°F29.6°C 59.0°F15.0°C 41% 4.0 mph SW6.4 kmh SW 5.0 mph8.0 kmh 29.91 in1012.9 mb 0.00 in0.0 mm 0.00 in/hr0.0 mm/hr 0.43 in10.9 mm
03:40 PM 86.5°F30.3°C 62.0°F16.7°C 44% 7.0 mph NNE11.3 kmh NNE 7.0 mph11.3 kmh 29.91 in1012.9 mb 0.00 in0.0 mm 0.00 in/hr0.0 mm/hr 0.43 in10.9 mm
03:50 PM 85.1°F29.5°C 58.8°F14.9°C 41% Calm Calm 3.0 mph4.8 kmh 29.91 in1012.9 mb 0.00 in0.0 mm 0.00 in/hr0.0 mm/hr 0.43 in10.9 mm
04:00 PM 85.5°F29.7°C 60.5°F15.8°C 43% 4.0 mph NE6.4 kmh NE 9.0 mph14.5 kmh 29.91 in1012.9 mb 0.00 in0.0 mm 0.00 in/hr0.0 mm/hr 0.43 in10.9 mm
04:10 PM 85.1°F29.5°C 62.0°F16.7°C 46% 1.0 mph N1.6 kmh N 2.0 mph3.2 kmh 29.91 in1012.9 mb 0.00 in0.0 mm 0.00 in/hr0.0 mm/hr 0.43 in10.9 mm
04:20 PM 87.2°F30.7°C 61.3°F16.3°C 42% 1.0 mph NNE1.6 kmh NNE 5.0 mph8.0 kmh 29.91 in1012.9 mb 0.00 in0.0 mm 0.00 in/hr0.0 mm/hr 0.43 in10.9 mm
04:30 PM 87.2°F30.7°C 61.3°F16.3°C 42% 5.0 mph NNW8.0 kmh NNW 9.0 mph14.5 kmh 29.91 in1012.9 mb 0.00 in0.0 mm 0.00 in/hr0.0 mm/hr 0.43 in10.9 mm
04:40 PM 87.5°F30.8°C 63.6°F17.6°C 45% 3.0 mph WNW4.8 kmh WNW 6.0 mph9.7 kmh 29.91 in1012.9 mb 0.00 in0.0 mm 0.00 in/hr0.0 mm/hr 0.43 in10.9 mm
04:50 PM 86.6°F30.3°C 64.0°F17.8°C 47% 4.0 mph NW6.4 kmh NW 9.0 mph14.5 kmh 29.91 in1012.9 mb 0.00 in0.0 mm 0.00 in/hr0.0 mm/hr 0.43 in10.9 mm
05:00 PM 86.4°F30.2°C 61.3°F16.3°C 43% 6.0 mph NNE9.7 kmh NNE 11.0 mph17.7 kmh 29.91 in1012.9 mb 0.00 in0.0 mm 0.00 in/hr0.0 mm/hr 0.43 in10.9 mm
05:10 PM 85.4°F29.7°C 61.7°F16.5°C 45% 3.0 mph N4.8 kmh N 9.0 mph14.5 kmh 29.91 in1012.9 mb 0.00 in0.0 mm 0.00 in/hr0.0 mm/hr 0.43 in10.9 mm
05:20 PM 83.2°F28.4°C 62.1°F16.7°C 49% 2.0 mph NE3.2 kmh NE 8.0 mph12.9 kmh 29.91 in1012.9 mb 0.00 in0.0 mm 0.00 in/hr0.0 mm/hr 0.43 in10.9 mm
05:30 PM 84.8°F29.3°C 60.5°F15.8°C 44% 1.0 mph NNE1.6 kmh NNE 10.0 mph16.1 kmh 29.92 in1013.2 mb 0.00 in0.0 mm 0.00 in/hr0.0 mm/hr 0.43 in10.9 mm
05:40 PM 85.7°F29.8°C 61.3°F16.3°C 44% 7.0 mph N11.3 kmh N 10.0 mph16.1 kmh 29.92 in1013.2 mb 0.00 in0.0 mm 0.00 in/hr0.0 mm/hr 0.43 in10.9 mm
05:50 PM 82.7°F28.2°C 60.4°F15.8°C 47% 3.0 mph N4.8 kmh N 5.0 mph8.0 kmh 29.92 in1013.2 mb 0.00 in0.0 mm 0.00 in/hr0.0 mm/hr 0.43 in10.9 mm
06:00 PM 82.3°F27.9°C 61.3°F16.3°C 49% Calm Calm 5.0 mph8.0 kmh 29.92 in1013.2 mb 0.00 in0.0 mm 0.00 in/hr0.0 mm/hr 0.43 in10.9 mm
06:10 PM 83.9°F28.8°C 61.5°F16.4°C 47% Calm Calm 7.0 mph11.3 kmh 29.92 in1013.2 mb 0.00 in0.0 mm 0.00 in/hr0.0 mm/hr 0.43 in10.9 mm
06:20 PM 83.9°F28.8°C 60.9°F16.1°C 46% 3.0 mph N4.8 kmh N 9.0 mph14.5 kmh 29.92 in1013.2 mb 0.00 in0.0 mm 0.00 in/hr0.0 mm/hr 0.43 in10.9 mm
06:30 PM 83.6°F28.7°C 61.3°F16.3°C 47% 5.0 mph N8.0 kmh N 9.0 mph14.5 kmh 29.92 in1013.2 mb 0.00 in0.0 mm 0.00 in/hr0.0 mm/hr 0.43 in10.9 mm
06:40 PM 83.8°F28.8°C 61.4°F16.3°C 47% 3.0 mph NNW4.8 kmh NNW 6.0 mph9.7 kmh 29.92 in1013.2 mb 0.00 in0.0 mm 0.00 in/hr0.0 mm/hr 0.43 in10.9 mm
06:50 PM 83.4°F28.6°C 61.7°F16.5°C 48% 6.0 mph N9.7 kmh N 7.0 mph11.3 kmh 29.92 in1013.2 mb 0.00 in0.0 mm 0.00 in/hr0.0 mm/hr 0.43 in10.9 mm
07:01 PM 83.0°F28.3°C 61.9°F16.6°C 49% 3.0 mph NW4.8 kmh NW 6.0 mph9.7 kmh 29.92 in1013.2 mb 0.00 in0.0 mm 0.00 in/hr0.0 mm/hr 0.43 in10.9 mm
07:10 PM 82.5°F28.1°C 62.0°F16.7°C 50% 3.0 mph NNE4.8 kmh NNE 11.0 mph17.7 kmh 29.92 in1013.2 mb 0.00 in0.0 mm 0.00 in/hr0.0 mm/hr 0.43 in10.9 mm
07:20 PM 81.4°F27.4°C 62.1°F16.7°C 52% 5.0 mph NNE8.0 kmh NNE 6.0 mph9.7 kmh 29.92 in1013.2 mb 0.00 in0.0 mm 0.00 in/hr0.0 mm/hr 0.43 in10.9 mm
07:30 PM 80.2°F26.8°C 62.1°F16.7°C 54% Calm Calm 9.0 mph14.5 kmh 29.92 in1013.2 mb 0.00 in0.0 mm 0.00 in/hr0.0 mm/hr 0.43 in10.9 mm
07:40 PM 79.7°F26.5°C 62.6°F17.0°C 56% Calm Calm 4.0 mph6.4 kmh 29.92 in1013.2 mb 0.00 in0.0 mm 0.00 in/hr0.0 mm/hr 0.43 in10.9 mm
07:50 PM 78.7°F25.9°C 62.2°F16.8°C 57% 3.0 mph N4.8 kmh N 5.0 mph8.0 kmh 29.92 in1013.2 mb 0.00 in0.0 mm 0.00 in/hr0.0 mm/hr 0.43 in10.9 mm
08:00 PM 77.8°F25.4°C 62.8°F17.1°C 60% 3.0 mph NNE4.8 kmh NNE 6.0 mph9.7 kmh 29.92 in1013.2 mb 0.00 in0.0 mm 0.00 in/hr0.0 mm/hr 0.43 in10.9 mm
08:10 PM 77.2°F25.1°C 62.7°F17.1°C 61% 3.0 mph N4.8 kmh N 4.0 mph6.4 kmh 29.92 in1013.2 mb 0.00 in0.0 mm 0.00 in/hr0.0 mm/hr 0.43 in10.9 mm
08:20 PM 76.6°F24.8°C 63.1°F17.3°C 63% 2.0 mph N3.2 kmh N 4.0 mph6.4 kmh 29.92 in1013.2 mb 0.00 in0.0 mm 0.00 in/hr0.0 mm/hr 0.43 in10.9 mm
08:30 PM 76.0°F24.4°C 63.0°F17.2°C 64% Calm Calm 4.0 mph6.4 kmh 29.93 in1013.5 mb 0.00 in0.0 mm 0.00 in/hr0.0 mm/hr 0.43 in10.9 mm
08:40 PM 75.6°F24.2°C 63.5°F17.5°C 66% 1.0 mph N1.6 kmh N 4.0 mph6.4 kmh 29.93 in1013.5 mb 0.00 in0.0 mm 0.00 in/hr0.0 mm/hr 0.43 in10.9 mm
08:50 PM 75.1°F23.9°C 63.4°F17.4°C 67% Calm Calm 1.0 mph1.6 kmh 29.94 in1013.9 mb 0.00 in0.0 mm 0.00 in/hr0.0 mm/hr 0.43 in10.9 mm
09:01 PM 74.4°F23.6°C 63.6°F17.6°C 69% Calm Calm 1.0 mph1.6 kmh 29.94 in1013.9 mb 0.00 in0.0 mm 0.00 in/hr0.0 mm/hr 0.43 in10.9 mm
09:10 PM 74.0°F23.3°C 63.2°F17.3°C 69% Calm Calm 1.0 mph1.6 kmh 29.94 in1013.9 mb 0.00 in0.0 mm 0.00 in/hr0.0 mm/hr 0.43 in10.9 mm
09:20 PM 73.6°F23.1°C 63.6°F17.6°C 71% Calm Calm 1.0 mph1.6 kmh 29.95 in1014.2 mb 0.00 in0.0 mm 0.00 in/hr0.0 mm/hr 0.43 in10.9 mm
09:30 PM 73.4°F23.0°C 63.4°F17.4°C 71% Calm Calm 1.0 mph1.6 kmh 29.95 in1014.2 mb 0.00 in0.0 mm 0.00 in/hr0.0 mm/hr 0.43 in10.9 mm
09:40 PM 72.8°F22.7°C 63.3°F17.4°C 72% Calm Calm 1.0 mph1.6 kmh 29.96 in1014.6 mb 0.00 in0.0 mm 0.00 in/hr0.0 mm/hr 0.43 in10.9 mm
09:50 PM 72.5°F22.5°C 63.8°F17.7°C 74% Calm Calm 3.0 mph4.8 kmh 29.96 in1014.6 mb 0.00 in0.0 mm 0.00 in/hr0.0 mm/hr 0.43 in10.9 mm
10:00 PM 72.3°F22.4°C 63.6°F17.6°C 74% Calm Calm 1.0 mph1.6 kmh 29.96 in1014.6 mb 0.00 in0.0 mm 0.00 in/hr0.0 mm/hr 0.43 in10.9 mm
10:10 PM 72.0°F22.2°C 63.3°F17.4°C 74% Calm Calm 3.0 mph4.8 kmh 29.97 in1014.9 mb 0.00 in0.0 mm 0.00 in/hr0.0 mm/hr 0.43 in10.9 mm
10:20 PM 71.3°F21.8°C 63.4°F17.4°C 76% Calm Calm 3.0 mph4.8 kmh 29.97 in1014.9 mb 0.00 in0.0 mm 0.00 in/hr0.0 mm/hr 0.43 in10.9 mm
10:30 PM 70.8°F21.6°C 63.2°F17.3°C 77% Calm Calm 1.0 mph1.6 kmh 29.97 in1014.9 mb 0.00 in0.0 mm 0.00 in/hr0.0 mm/hr 0.43 in10.9 mm
10:40 PM 70.5°F21.4°C 63.3°F17.4°C 78% Calm Calm 1.0 mph1.6 kmh 29.98 in1015.2 mb 0.00 in0.0 mm 0.00 in/hr0.0 mm/hr 0.43 in10.9 mm
10:50 PM 70.3°F21.3°C 63.1°F17.3°C 78% Calm Calm 1.0 mph1.6 kmh 29.97 in1014.9 mb 0.00 in0.0 mm 0.00 in/hr0.0 mm/hr 0.43 in10.9 mm
11:01 PM 69.7°F20.9°C 63.3°F17.4°C 80% Calm Calm 1.0 mph1.6 kmh 29.98 in1015.2 mb 0.00 in0.0 mm 0.00 in/hr0.0 mm/hr 0.43 in10.9 mm
11:10 PM 69.2°F20.7°C 63.5°F17.5°C 82% Calm Calm 1.0 mph1.6 kmh 29.98 in1015.2 mb 0.00 in0.0 mm 0.00 in/hr0.0 mm/hr 0.43 in10.9 mm
11:20 PM 69.0°F20.6°C 63.6°F17.6°C 83% Calm Calm -- 29.98 in1015.2 mb 0.00 in0.0 mm 0.00 in/hr0.0 mm/hr 0.43 in10.9 mm
11:30 PM 68.5°F20.3°C 63.1°F17.3°C 83% Calm Calm -- 29.98 in1015.2 mb 0.00 in0.0 mm 0.00 in/hr0.0 mm/hr 0.43 in10.9 mm
11:40 PM 68.3°F20.2°C 63.3°F17.4°C 84% Calm Calm 1.0 mph1.6 kmh 29.98 in1015.2 mb 0.00 in0.0 mm 0.00 in/hr0.0 mm/hr 0.43 in10.9 mm
11:50 PM 68.1°F20.1°C 63.1°F17.3°C 84% Calm Calm -- 29.98 in1015.2 mb 0.00 in0.0 mm 0.00 in/hr0.0 mm/hr 0.43 in10.9 mm